sensor_id;sensor_type;location;lat;lon;timestamp;pressure;altitude;pressure_sealevel;temperature;humidity
49367;BME280;35245;52.026;8.540;2023-07-20T00:02:07;51095.94;;;-145.42;100.00
49367;BME280;35245;52.026;8.540;2023-07-20T00:04:34;51117.75;;;-145.42;100.00
49367;BME280;35245;52.026;8.540;2023-07-20T00:07:04;51099.91;;;-145.42;100.00
49367;BME280;35245;52.026;8.540;2023-07-20T00:09:31;51115.75;;;-145.42;100.00
49367;BME280;35245;52.026;8.540;2023-07-20T00:11:58;51105.84;;;-145.42;100.00
49367;BME280;35245;52.026;8.540;2023-07-20T00:14:26;51135.59;;;-145.42;100.00
49367;BME280;35245;52.026;8.540;2023-07-20T00:16:56;51133.59;;;-145.42;100.00
49367;BME280;35245;52.026;8.540;2023-07-20T00:19:23;51119.72;;;-145.42;100.00
49367;BME280;35245;52.026;8.540;2023-07-20T00:21:51;51123.69;;;-145.42;100.00
49367;BME280;35245;52.026;8.540;2023-07-20T00:24:19;51125.69;;;-145.42;100.00
49367;BME280;35245;52.026;8.540;2023-07-20T00:26:46;51129.63;;;-145.42;100.00
49367;BME280;35245;52.026;8.540;2023-07-20T00:29:13;51115.75;;;-145.42;100.00
49367;BME280;35245;52.026;8.540;2023-07-20T00:31:41;51125.69;;;-145.42;100.00
49367;BME280;35245;52.026;8.540;2023-07-20T00:34:09;51147.47;;;-145.42;100.00
49367;BME280;35245;52.026;8.540;2023-07-20T00:36:36;51145.50;;;-145.42;100.00
49367;BME280;35245;52.026;8.540;2023-07-20T00:39:03;51141.53;;;-145.42;100.00
49367;BME280;35245;52.026;8.540;2023-07-20T00:41:32;51139.56;;;-145.42;100.00
49367;BME280;35245;52.026;8.540;2023-07-20T00:43:59;51131.63;;;-145.42;100.00
49367;BME280;35245;52.026;8.540;2023-07-20T00:46:26;51129.63;;;-145.42;100.00
49367;BME280;35245;52.026;8.540;2023-07-20T00:48:54;51135.59;;;-145.42;100.00
49367;BME280;35245;52.026;8.540;2023-07-20T00:51:23;51137.56;;;-145.42;100.00
49367;BME280;35245;52.026;8.540;2023-07-20T00:53:52;51135.59;;;-145.42;100.00
49367;BME280;35245;52.026;8.540;2023-07-20T00:56:20;51139.56;;;-145.42;100.00
49367;BME280;35245;52.026;8.540;2023-07-20T00:58:49;51153.44;;;-145.42;100.00
49367;BME280;35245;52.026;8.540;2023-07-20T01:01:17;51135.59;;;-145.42;100.00
49367;BME280;35245;52.026;8.540;2023-07-20T01:03:44;51137.56;;;-145.42;100.00
49367;BME280;35245;52.026;8.540;2023-07-20T01:06:24;51129.63;;;-145.42;100.00
49367;BME280;35245;52.026;8.540;2023-07-20T01:09:02;51119.72;;;-145.42;100.00
49367;BME280;35245;52.026;8.540;2023-07-20T01:11:38;51137.56;;;-145.42;100.00
49367;BME280;35245;52.026;8.540;2023-07-20T01:14:12;51115.75;;;-145.42;100.00
49367;BME280;35245;52.026;8.540;2023-07-20T01:16:40;51133.59;;;-145.42;100.00
49367;BME280;35245;52.026;8.540;2023-07-20T01:19:07;51121.72;;;-145.42;100.00
49367;BME280;35245;52.026;8.540;2023-07-20T01:21:43;51145.50;;;-145.42;100.00
49367;BME280;35245;52.026;8.540;2023-07-20T01:24:56;51157.38;;;-145.42;100.00
49367;BME280;35245;52.026;8.540;2023-07-20T01:28:09;51149.47;;;-145.42;100.00
49367;BME280;35245;52.026;8.540;2023-07-20T01:30:52;51165.31;;;-145.42;100.00
49367;BME280;35245;52.026;8.540;2023-07-20T01:33:24;51161.34;;;-145.42;100.00
49367;BME280;35245;52.026;8.540;2023-07-20T01:35:56;51143.50;;;-145.42;100.00
49367;BME280;35245;52.026;8.540;2023-07-20T01:38:24;51173.25;;;-145.42;100.00
49367;BME280;35245;52.026;8.540;2023-07-20T01:40:52;51153.44;;;-145.42;100.00
49367;BME280;35245;52.026;8.540;2023-07-20T01:43:19;51149.47;;;-145.42;100.00
49367;BME280;35245;52.026;8.540;2023-07-20T01:45:47;51153.44;;;-145.42;100.00
49367;BME280;35245;52.026;8.540;2023-07-20T01:48:14;51141.53;;;-145.42;100.00
49367;BME280;35245;52.026;8.540;2023-07-20T01:50:42;51129.63;;;-145.42;100.00
49367;BME280;35245;52.026;8.540;2023-07-20T01:53:10;51125.69;;;-145.42;100.00
49367;BME280;35245;52.026;8.540;2023-07-20T01:55:37;51131.63;;;-145.42;100.00
49367;BME280;35245;52.026;8.540;2023-07-20T01:58:04;51147.47;;;-145.42;100.00
49367;BME280;35245;52.026;8.540;2023-07-20T02:00:32;51135.59;;;-145.42;100.00
49367;BME280;35245;52.026;8.540;2023-07-20T02:02:59;51117.75;;;-145.42;100.00
49367;BME280;35245;52.026;8.540;2023-07-20T02:05:26;51141.53;;;-145.42;100.00
49367;BME280;35245;52.026;8.540;2023-07-20T02:07:55;51143.50;;;-145.42;100.00
49367;BME280;35245;52.026;8.540;2023-07-20T02:10:22;51169.28;;;-145.42;100.00
49367;BME280;35245;52.026;8.540;2023-07-20T02:12:49;51155.41;;;-145.42;100.00
49367;BME280;35245;52.026;8.540;2023-07-20T02:15:17;51167.31;;;-145.42;100.00
49367;BME280;35245;52.026;8.540;2023-07-20T02:17:45;51161.34;;;-145.42;100.00
49367;BME280;35245;52.026;8.540;2023-07-20T02:20:12;51143.50;;;-145.42;100.00
49367;BME280;35245;52.026;8.540;2023-07-20T02:22:40;51159.38;;;-145.42;100.00
49367;BME280;35245;52.026;8.540;2023-07-20T02:25:09;51145.50;;;-145.42;100.00
49367;BME280;35245;52.026;8.540;2023-07-20T02:27:37;51149.47;;;-145.42;100.00
49367;BME280;35245;52.026;8.540;2023-07-20T02:30:06;51222.81;;;-145.42;100.00
49367;BME280;35245;52.026;8.540;2023-07-20T02:32:34;51169.28;;;-145.42;100.00
49367;BME280;35245;52.026;8.540;2023-07-20T02:35:01;51145.50;;;-145.42;100.00
49367;BME280;35245;52.026;8.540;2023-07-20T02:37:29;51139.56;;;-145.42;100.00
49367;BME280;35245;52.026;8.540;2023-07-20T02:39:56;51159.38;;;-145.42;100.00
49367;BME280;35245;52.026;8.540;2023-07-20T02:42:25;51165.31;;;-145.42;100.00
49367;BME280;35245;52.026;8.540;2023-07-20T02:44:52;51155.41;;;-145.42;100.00
49367;BME280;35245;52.026;8.540;2023-07-20T02:47:19;51183.16;;;-145.42;100.00
49367;BME280;35245;52.026;8.540;2023-07-20T02:49:46;51155.41;;;-145.42;100.00
49367;BME280;35245;52.026;8.540;2023-07-20T02:52:13;51159.38;;;-145.42;100.00
49367;BME280;35245;52.026;8.540;2023-07-20T02:54:40;51161.34;;;-145.42;100.00
49367;BME280;35245;52.026;8.540;2023-07-20T02:57:07;51165.31;;;-145.42;100.00
49367;BME280;35245;52.026;8.540;2023-07-20T02:59:36;51149.47;;;-145.42;100.00
49367;BME280;35245;52.026;8.540;2023-07-20T03:02:03;51147.47;;;-145.42;100.00
49367;BME280;35245;52.026;8.540;2023-07-20T03:04:30;51149.47;;;-145.42;100.00
49367;BME280;35245;52.026;8.540;2023-07-20T03:06:57;51155.41;;;-145.42;100.00
49367;BME280;35245;52.026;8.540;2023-07-20T03:09:25;51115.75;;;-145.42;100.00
49367;BME280;35245;52.026;8.540;2023-07-20T03:11:52;51105.84;;;-145.42;100.00
49367;BME280;35245;52.026;8.540;2023-07-20T03:14:19;51117.75;;;-145.42;100.00
49367;BME280;35245;52.026;8.540;2023-07-20T03:16:48;51153.44;;;-145.42;100.00
49367;BME280;35245;52.026;8.540;2023-07-20T03:19:15;51117.75;;;-145.42;100.00
49367;BME280;35245;52.026;8.540;2023-07-20T03:21:42;51127.66;;;-145.42;100.00
49367;BME280;35245;52.026;8.540;2023-07-20T03:24:09;51165.31;;;-145.42;100.00
49367;BME280;35245;52.026;8.540;2023-07-20T03:26:37;51133.59;;;-145.42;100.00
49367;BME280;35245;52.026;8.540;2023-07-20T03:29:04;51123.69;;;-145.42;100.00
49367;BME280;35245;52.026;8.540;2023-07-20T03:31:32;51129.63;;;-145.42;100.00
49367;BME280;35245;52.026;8.540;2023-07-20T03:34:01;51131.63;;;-145.42;100.00
49367;BME280;35245;52.026;8.540;2023-07-20T03:36:28;51177.22;;;-145.42;100.00
49367;BME280;35245;52.026;8.540;2023-07-20T03:38:55;51127.66;;;-145.42;100.00
49367;BME280;35245;52.026;8.540;2023-07-20T03:41:22;51129.63;;;-145.42;100.00
49367;BME280;35245;52.026;8.540;2023-07-20T03:43:49;51199.03;;;-145.42;100.00
49367;BME280;35245;52.026;8.540;2023-07-20T03:46:16;51189.09;;;-145.42;100.00
49367;BME280;35245;52.026;8.540;2023-07-20T03:48:43;51167.31;;;-145.42;100.00
49367;BME280;35245;52.026;8.540;2023-07-20T03:51:12;51137.56;;;-145.42;100.00
49367;BME280;35245;52.026;8.540;2023-07-20T03:53:39;51167.31;;;-145.42;100.00
49367;BME280;35245;52.026;8.540;2023-07-20T03:56:06;51161.34;;;-145.42;100.00
49367;BME280;35245;52.026;8.540;2023-07-20T03:58:33;51151.44;;;-145.42;100.00
49367;BME280;35245;52.026;8.540;2023-07-20T04:01:00;51161.34;;;-145.42;100.00
49367;BME280;35245;52.026;8.540;2023-07-20T04:03:27;51202.97;;;-145.42;100.00
49367;BME280;35245;52.026;8.540;2023-07-20T04:05:55;51157.38;;;-145.42;100.00
49367;BME280;35245;52.026;8.540;2023-07-20T04:08:24;51139.56;;;-145.42;100.00
49367;BME280;35245;52.026;8.540;2023-07-20T04:10:51;51121.72;;;-145.42;100.00
49367;BME280;35245;52.026;8.540;2023-07-20T04:13:19;51121.72;;;-145.42;100.00
49367;BME280;35245;52.026;8.540;2023-07-20T04:15:46;51125.69;;;-145.42;100.00
49367;BME280;35245;52.026;8.540;2023-07-20T04:18:13;51131.63;;;-145.42;100.00
49367;BME280;35245;52.026;8.540;2023-07-20T04:20:40;51082.06;;;-145.42;100.00
49367;BME280;35245;52.026;8.540;2023-07-20T04:23:08;51084.03;;;-145.42;100.00
49367;BME280;35245;52.026;8.540;2023-07-20T04:25:39;51088.00;;;-145.42;100.00
49367;BME280;35245;52.026;8.540;2023-07-20T04:28:07;51103.88;;;-145.42;100.00
49367;BME280;35245;52.026;8.540;2023-07-20T04:30:37;51101.88;;;-145.42;100.00
49367;BME280;35245;52.026;8.540;2023-07-20T04:33:04;51103.88;;;-145.42;100.00
49367;BME280;35245;52.026;8.540;2023-07-20T04:35:48;51103.88;;;-145.42;100.00
49367;BME280;35245;52.026;8.540;2023-07-20T04:38:16;51103.88;;;-145.42;100.00
49367;BME280;35245;52.026;8.540;2023-07-20T04:40:47;51086.03;;;-145.42;100.00
49367;BME280;35245;52.026;8.540;2023-07-20T04:43:17;51088.00;;;-145.42;100.00
49367;BME280;35245;52.026;8.540;2023-07-20T04:45:44;51109.81;;;-145.42;100.00
49367;BME280;35245;52.026;8.540;2023-07-20T04:48:13;51137.56;;;-145.42;100.00
49367;BME280;35245;52.026;8.540;2023-07-20T04:50:42;51117.75;;;-145.42;100.00
49367;BME280;35245;52.026;8.540;2023-07-20T04:53:10;51090.00;;;-145.42;100.00
49367;BME280;35245;52.026;8.540;2023-07-20T04:55:38;51109.81;;;-145.42;100.00
49367;BME280;35245;52.026;8.540;2023-07-20T04:58:07;51119.72;;;-145.42;100.00
49367;BME280;35245;52.026;8.540;2023-07-20T05:00:34;51121.72;;;-145.42;100.00
49367;BME280;35245;52.026;8.540;2023-07-20T05:03:02;51125.69;;;-145.42;100.00
49367;BME280;35245;52.026;8.540;2023-07-20T05:05:31;51107.84;;;-145.42;100.00
49367;BME280;35245;52.026;8.540;2023-07-20T05:07:58;51121.72;;;-145.42;100.00
49367;BME280;35245;52.026;8.540;2023-07-20T05:10:25;51097.91;;;-145.42;100.00
49367;BME280;35245;52.026;8.540;2023-07-20T05:12:52;51129.63;;;-145.42;100.00
49367;BME280;35245;52.026;8.540;2023-07-20T05:15:21;51131.63;;;-145.42;100.00
49367;BME280;35245;52.026;8.540;2023-07-20T05:17:48;51117.75;;;-145.42;100.00
49367;BME280;35245;52.026;8.540;2023-07-20T05:20:15;51099.91;;;-145.42;100.00
49367;BME280;35245;52.026;8.540;2023-07-20T05:22:43;51101.88;;;-145.42;100.00
49367;BME280;35245;52.026;8.540;2023-07-20T05:25:11;51109.81;;;-145.42;100.00
49367;BME280;35245;52.026;8.540;2023-07-20T05:27:39;51101.88;;;-145.42;100.00
49367;BME280;35245;52.026;8.540;2023-07-20T05:30:09;51090.00;;;-145.42;100.00
49367;BME280;35245;52.026;8.540;2023-07-20T05:32:37;51095.94;;;-145.42;100.00
49367;BME280;35245;52.026;8.540;2023-07-20T05:35:06;51099.91;;;-145.42;100.00
49367;BME280;35245;52.026;8.540;2023-07-20T05:37:34;51101.88;;;-145.42;100.00
49367;BME280;35245;52.026;8.540;2023-07-20T05:40:01;51086.03;;;-145.42;100.00
49367;BME280;35245;52.026;8.540;2023-07-20T05:42:28;51101.88;;;-145.42;100.00
49367;BME280;35245;52.026;8.540;2023-07-20T05:44:55;51076.13;;;-145.42;100.00
49367;BME280;35245;52.026;8.540;2023-07-20T05:47:22;51115.75;;;-145.42;100.00
49367;BME280;35245;52.026;8.540;2023-07-20T05:49:51;51101.88;;;-145.42;100.00
49367;BME280;35245;52.026;8.540;2023-07-20T05:52:18;51125.69;;;-145.42;100.00
49367;BME280;35245;52.026;8.540;2023-07-20T05:54:45;51090.00;;;-145.42;100.00
49367;BME280;35245;52.026;8.540;2023-07-20T05:57:12;51105.84;;;-145.42;100.00
49367;BME280;35245;52.026;8.540;2023-07-20T05:59:39;51097.91;;;-145.42;100.00
49367;BME280;35245;52.026;8.540;2023-07-20T06:02:09;51086.03;;;-145.42;100.00
49367;BME280;35245;52.026;8.540;2023-07-20T06:04:37;51111.81;;;-145.42;100.00
49367;BME280;35245;52.026;8.540;2023-07-20T06:07:06;51107.84;;;-145.42;100.00
49367;BME280;35245;52.026;8.540;2023-07-20T06:09:33;51113.78;;;-145.42;100.00
49367;BME280;35245;52.026;8.540;2023-07-20T06:12:01;51113.78;;;-145.42;100.00
49367;BME280;35245;52.026;8.540;2023-07-20T06:14:28;51074.13;;;-145.42;100.00
49367;BME280;35245;52.026;8.540;2023-07-20T06:16:55;51093.97;;;-145.42;100.00
49367;BME280;35245;52.026;8.540;2023-07-20T06:19:22;51107.84;;;-145.42;100.00
49367;BME280;35245;52.026;8.540;2023-07-20T06:21:49;51070.16;;;-145.42;100.00
49367;BME280;35245;52.026;8.540;2023-07-20T06:24:18;51086.03;;;-145.42;100.00
49367;BME280;35245;52.026;8.540;2023-07-20T06:26:45;51105.84;;;-145.42;100.00
49367;BME280;35245;52.026;8.540;2023-07-20T06:29:12;51097.91;;;-145.42;100.00
49367;BME280;35245;52.026;8.540;2023-07-20T06:31:39;51084.03;;;-145.42;100.00
49367;BME280;35245;52.026;8.540;2023-07-20T06:34:06;51109.81;;;-145.42;100.00
49367;BME280;35245;52.026;8.540;2023-07-20T06:36:33;51058.28;;;-145.42;100.00
49367;BME280;35245;52.026;8.540;2023-07-20T06:39:01;51084.03;;;-145.42;100.00
49367;BME280;35245;52.026;8.540;2023-07-20T06:41:30;51078.09;;;-145.42;100.00
49367;BME280;35245;52.026;8.540;2023-07-20T06:43:57;51093.97;;;-145.42;100.00
49367;BME280;35245;52.026;8.540;2023-07-20T06:46:25;51105.84;;;-145.42;100.00
49367;BME280;35245;52.026;8.540;2023-07-20T06:48:53;51109.81;;;-145.42;100.00
49367;BME280;35245;52.026;8.540;2023-07-20T06:51:20;51103.88;;;-145.42;100.00
49367;BME280;35245;52.026;8.540;2023-07-20T06:53:47;51064.22;;;-145.42;100.00
49367;BME280;35245;52.026;8.540;2023-07-20T06:56:14;51078.09;;;-145.42;100.00
49367;BME280;35245;52.026;8.540;2023-07-20T06:58:43;51095.94;;;-145.42;100.00
49367;BME280;35245;52.026;8.540;2023-07-20T07:01:10;51082.06;;;-145.42;100.00
49367;BME280;35245;52.026;8.540;2023-07-20T07:03:37;51113.78;;;-145.42;100.00
49367;BME280;35245;52.026;8.540;2023-07-20T07:06:04;51129.63;;;-145.42;100.00
49367;BME280;35245;52.026;8.540;2023-07-20T07:08:31;51129.63;;;-145.42;100.00
49367;BME280;35245;52.026;8.540;2023-07-20T07:10:58;51119.72;;;-145.42;100.00
49367;BME280;35245;52.026;8.540;2023-07-20T07:13:25;51123.69;;;-145.42;100.00
49367;BME280;35245;52.026;8.540;2023-07-20T07:15:54;51139.56;;;-145.42;100.00
49367;BME280;35245;52.026;8.540;2023-07-20T07:18:21;51111.81;;;-145.42;100.00
49367;BME280;35245;52.026;8.540;2023-07-20T07:20:53;51103.88;;;-145.42;100.00
49367;BME280;35245;52.026;8.540;2023-07-20T07:23:20;51125.69;;;-145.42;100.00
49367;BME280;35245;52.026;8.540;2023-07-20T07:25:47;51099.91;;;-145.42;100.00
49367;BME280;35245;52.026;8.540;2023-07-20T07:28:15;51105.84;;;-145.42;100.00
49367;BME280;35245;52.026;8.540;2023-07-20T07:30:42;51105.84;;;-145.42;100.00
49367;BME280;35245;52.026;8.540;2023-07-20T07:33:10;51127.66;;;-145.42;100.00
49367;BME280;35245;52.026;8.540;2023-07-20T07:35:38;51095.94;;;-145.42;100.00
49367;BME280;35245;52.026;8.540;2023-07-20T07:38:05;51105.84;;;-145.42;100.00
49367;BME280;35245;52.026;8.540;2023-07-20T07:40:33;51133.59;;;-145.42;100.00
49367;BME280;35245;52.026;8.540;2023-07-20T07:43:00;51121.72;;;-145.42;100.00
49367;BME280;35245;52.026;8.540;2023-07-20T07:45:27;51131.63;;;-145.42;100.00
49367;BME280;35245;52.026;8.540;2023-07-20T07:47:55;51115.75;;;-145.42;100.00
49367;BME280;35245;52.026;8.540;2023-07-20T07:50:23;51113.78;;;-145.42;100.00
49367;BME280;35245;52.026;8.540;2023-07-20T07:52:50;51133.59;;;-145.42;100.00
49367;BME280;35245;52.026;8.540;2023-07-20T07:55:18;51115.75;;;-145.42;100.00
49367;BME280;35245;52.026;8.540;2023-07-20T07:57:45;51111.81;;;-145.42;100.00
49367;BME280;35245;52.026;8.540;2023-07-20T08:00:14;51137.56;;;-145.42;100.00
49367;BME280;35245;52.026;8.540;2023-07-20T08:02:44;51133.59;;;-145.42;100.00
49367;BME280;35245;52.026;8.540;2023-07-20T08:05:12;51125.69;;;-145.42;100.00
49367;BME280;35245;52.026;8.540;2023-07-20T08:07:41;51113.78;;;-145.42;100.00
49367;BME280;35245;52.026;8.540;2023-07-20T08:10:09;51137.56;;;-145.42;100.00
49367;BME280;35245;52.026;8.540;2023-07-20T08:12:36;51129.63;;;-145.42;100.00
49367;BME280;35245;52.026;8.540;2023-07-20T08:15:05;51117.75;;;-145.42;100.00
49367;BME280;35245;52.026;8.540;2023-07-20T08:17:32;51141.53;;;-145.42;100.00
49367;BME280;35245;52.026;8.540;2023-07-20T08:19:59;51141.53;;;-145.42;100.00
49367;BME280;35245;52.026;8.540;2023-07-20T08:22:26;51129.63;;;-145.42;100.00
49367;BME280;35245;52.026;8.540;2023-07-20T08:24:55;51139.56;;;-145.42;100.00
49367;BME280;35245;52.026;8.540;2023-07-20T08:27:22;51127.66;;;-145.42;100.00
49367;BME280;35245;52.026;8.540;2023-07-20T08:29:49;51117.75;;;-145.42;100.00
49367;BME280;35245;52.026;8.540;2023-07-20T08:32:16;51123.69;;;-145.42;100.00
49367;BME280;35245;52.026;8.540;2023-07-20T08:34:43;51101.88;;;-145.42;100.00
49367;BME280;35245;52.026;8.540;2023-07-20T08:37:11;51139.56;;;-145.42;100.00
49367;BME280;35245;52.026;8.540;2023-07-20T08:39:38;51131.63;;;-145.42;100.00
49367;BME280;35245;52.026;8.540;2023-07-20T08:42:07;51105.84;;;-145.42;100.00
49367;BME280;35245;52.026;8.540;2023-07-20T08:44:34;51115.75;;;-145.42;100.00
49367;BME280;35245;52.026;8.540;2023-07-20T08:47:03;51113.78;;;-145.42;100.00
49367;BME280;35245;52.026;8.540;2023-07-20T08:49:31;51145.50;;;-145.42;100.00
49367;BME280;35245;52.026;8.540;2023-07-20T08:52:00;51129.63;;;-145.42;100.00
49367;BME280;35245;52.026;8.540;2023-07-20T08:54:31;51121.72;;;-145.42;100.00
49367;BME280;35245;52.026;8.540;2023-07-20T08:57:02;51139.56;;;-145.42;100.00
49367;BME280;35245;52.026;8.540;2023-07-20T08:59:32;51137.56;;;-145.42;100.00
49367;BME280;35245;52.026;8.540;2023-07-20T09:02:00;51113.78;;;-145.42;100.00
49367;BME280;35245;52.026;8.540;2023-07-20T09:04:28;51117.75;;;-145.42;100.00
49367;BME280;35245;52.026;8.540;2023-07-20T09:06:56;51123.69;;;-145.42;100.00
49367;BME280;35245;52.026;8.540;2023-07-20T09:09:24;51111.81;;;-145.42;100.00
49367;BME280;35245;52.026;8.540;2023-07-20T09:11:51;51115.75;;;-145.42;100.00
49367;BME280;35245;52.026;8.540;2023-07-20T09:14:18;51109.81;;;-145.42;100.00
49367;BME280;35245;52.026;8.540;2023-07-20T09:16:52;51111.81;;;-145.42;100.00
49367;BME280;35245;52.026;8.540;2023-07-20T09:19:20;51119.72;;;-145.42;100.00
49367;BME280;35245;52.026;8.540;2023-07-20T09:21:49;51155.41;;;-145.42;100.00
49367;BME280;35245;52.026;8.540;2023-07-20T09:24:18;51153.44;;;-145.42;100.00
49367;BME280;35245;52.026;8.540;2023-07-20T09:26:47;51149.47;;;-145.42;100.00
49367;BME280;35245;52.026;8.540;2023-07-20T09:29:18;51131.63;;;-145.42;100.00
49367;BME280;35245;52.026;8.540;2023-07-20T09:31:59;51115.75;;;-145.42;100.00
49367;BME280;35245;52.026;8.540;2023-07-20T09:34:28;51117.75;;;-145.42;100.00
49367;BME280;35245;52.026;8.540;2023-07-20T09:36:55;51119.72;;;-145.42;100.00
49367;BME280;35245;52.026;8.540;2023-07-20T09:39:22;51119.72;;;-145.42;100.00
49367;BME280;35245;52.026;8.540;2023-07-20T09:41:50;51159.38;;;-145.42;100.00
49367;BME280;35245;52.026;8.540;2023-07-20T09:44:19;51157.38;;;-145.42;100.00
49367;BME280;35245;52.026;8.540;2023-07-20T09:46:48;51143.50;;;-145.42;100.00
49367;BME280;35245;52.026;8.540;2023-07-20T09:49:17;51159.38;;;-145.42;100.00
49367;BME280;35245;52.026;8.540;2023-07-20T09:51:45;51127.66;;;-145.42;100.00
49367;BME280;35245;52.026;8.540;2023-07-20T09:54:14;51135.59;;;-145.42;100.00
49367;BME280;35245;52.026;8.540;2023-07-20T09:56:41;51139.56;;;-145.42;100.00
49367;BME280;35245;52.026;8.540;2023-07-20T09:59:08;51149.47;;;-145.42;100.00
49367;BME280;35245;52.026;8.540;2023-07-20T10:01:36;51181.19;;;-145.42;100.00
49367;BME280;35245;52.026;8.540;2023-07-20T10:04:09;51151.44;;;-145.42;100.00
49367;BME280;35245;52.026;8.540;2023-07-20T10:06:42;51147.47;;;-145.42;100.00
49367;BME280;35245;52.026;8.540;2023-07-20T10:09:12;51173.25;;;-145.42;100.00
49367;BME280;35245;52.026;8.540;2023-07-20T10:11:47;51151.44;;;-145.42;100.00
49367;BME280;35245;52.026;8.540;2023-07-20T10:14:20;51155.41;;;-145.42;100.00
49367;BME280;35245;52.026;8.540;2023-07-20T10:16:51;51153.44;;;-145.42;100.00
49367;BME280;35245;52.026;8.540;2023-07-20T10:19:23;51141.53;;;-145.42;100.00
49367;BME280;35245;52.026;8.540;2023-07-20T10:22:00;51141.53;;;-145.42;100.00
49367;BME280;35245;52.026;8.540;2023-07-20T10:24:28;51147.47;;;-145.42;100.00
49367;BME280;35245;52.026;8.540;2023-07-20T10:26:57;51167.31;;;-145.42;100.00
49367;BME280;35245;52.026;8.540;2023-07-20T10:29:25;51159.38;;;-145.42;100.00
49367;BME280;35245;52.026;8.540;2023-07-20T10:31:54;51153.44;;;-145.42;100.00
49367;BME280;35245;52.026;8.540;2023-07-20T10:34:22;51141.53;;;-145.42;100.00
49367;BME280;35245;52.026;8.540;2023-07-20T10:36:49;51169.28;;;-145.42;100.00
49367;BME280;35245;52.026;8.540;2023-07-20T10:39:27;51173.25;;;-145.42;100.00
49367;BME280;35245;52.026;8.540;2023-07-20T10:42:07;51153.44;;;-145.42;100.00
49367;BME280;35245;52.026;8.540;2023-07-20T10:44:37;51161.34;;;-145.42;100.00
49367;BME280;35245;52.026;8.540;2023-07-20T10:47:09;51185.16;;;-145.42;100.00
49367;BME280;35245;52.026;8.540;2023-07-20T10:49:58;51197.03;;;-145.42;100.00
49367;BME280;35245;52.026;8.540;2023-07-20T10:52:26;51185.16;;;-145.42;98.89
49367;BME280;35245;52.026;8.540;2023-07-20T10:54:54;51169.28;;;-145.42;98.60
49367;BME280;35245;52.026;8.540;2023-07-20T10:57:29;51163.34;;;-145.42;100.00
49367;BME280;35245;52.026;8.540;2023-07-20T11:00:09;51175.22;;;-145.42;100.00
49367;BME280;35245;52.026;8.540;2023-07-20T11:02:43;51197.03;;;-145.42;100.00
49367;BME280;35245;52.026;8.540;2023-07-20T11:05:32;51177.22;;;-145.42;99.09
49367;BME280;35245;52.026;8.540;2023-07-20T11:08:00;51181.19;;;-145.42;98.40
49367;BME280;35245;52.026;8.540;2023-07-20T11:10:30;51181.19;;;-145.42;99.66
49367;BME280;35245;52.026;8.540;2023-07-20T11:13:21;51181.19;;;-145.42;100.00
49367;BME280;35245;52.026;8.540;2023-07-20T11:16:03;51177.22;;;-145.42;100.00
49367;BME280;35245;52.026;8.540;2023-07-20T11:18:34;51183.16;;;-145.42;100.00
49367;BME280;35245;52.026;8.540;2023-07-20T11:21:08;51201.00;;;-145.42;98.42
49367;BME280;35245;52.026;8.540;2023-07-20T11:23:38;51181.19;;;-145.42;100.00
49367;BME280;35245;52.026;8.540;2023-07-20T11:26:07;51181.19;;;-145.42;98.37
49367;BME280;35245;52.026;8.540;2023-07-20T11:28:35;51181.19;;;-145.42;100.00
49367;BME280;35245;52.026;8.540;2023-07-20T11:31:02;51206.94;;;-145.42;100.00
49367;BME280;35245;52.026;8.540;2023-07-20T11:33:30;51153.44;;;-145.42;100.00
49367;BME280;35245;52.026;8.540;2023-07-20T11:35:57;51157.38;;;-145.42;100.00
49367;BME280;35245;52.026;8.540;2023-07-20T11:38:24;51163.34;;;-145.42;100.00
49367;BME280;35245;52.026;8.540;2023-07-20T11:40:51;51179.19;;;-145.42;100.00
49367;BME280;35245;52.026;8.540;2023-07-20T11:43:20;51171.28;;;-145.42;100.00
49367;BME280;35245;52.026;8.540;2023-07-20T11:45:49;51165.31;;;-145.42;99.87
49367;BME280;35245;52.026;8.540;2023-07-20T11:48:16;51177.22;;;-145.42;97.61
49367;BME280;35245;52.026;8.540;2023-07-20T11:50:44;51177.22;;;-145.42;97.82
49367;BME280;35245;52.026;8.540;2023-07-20T11:53:11;51193.06;;;-145.42;94.64
49367;BME280;35245;52.026;8.540;2023-07-20T11:55:40;51204.97;;;-145.42;94.87
49367;BME280;35245;52.026;8.540;2023-07-20T11:58:09;51191.09;;;-145.42;96.50
49367;BME280;35245;52.026;8.540;2023-07-20T12:00:39;51181.19;;;-145.42;93.99
49367;BME280;35245;52.026;8.540;2023-07-20T12:03:07;51201.00;;;-145.42;90.65
49367;BME280;35245;52.026;8.540;2023-07-20T12:05:34;51323.91;;;-145.42;60.08
49367;BME280;35245;52.026;8.540;2023-07-20T12:08:01;51375.44;;;-145.42;57.87
49367;BME280;35245;52.026;8.540;2023-07-20T12:10:29;51308.03;;;-145.42;59.49
49367;BME280;35245;52.026;8.540;2023-07-20T12:13:02;51288.22;;;-145.42;63.95
49367;BME280;35245;52.026;8.540;2023-07-20T12:15:30;51226.78;;;-145.42;68.51
49367;BME280;35245;52.026;8.540;2023-07-20T12:18:01;51248.56;;;-145.42;73.55
49367;BME280;35245;52.026;8.540;2023-07-20T12:20:30;51232.72;;;-145.42;73.25
49367;BME280;35245;52.026;8.540;2023-07-20T12:23:02;51240.66;;;-145.42;72.40
49367;BME280;35245;52.026;8.540;2023-07-20T12:25:36;51254.53;;;-145.42;69.64
49367;BME280;35245;52.026;8.540;2023-07-20T12:28:07;51212.91;;;-145.42;74.29
49367;BME280;35245;52.026;8.540;2023-07-20T12:30:35;51365.53;;;-145.42;58.42
49367;BME280;35245;52.026;8.540;2023-07-20T12:33:04;51496.38;;;-145.42;43.63
49367;BME280;35245;52.026;8.540;2023-07-20T12:35:32;51458.72;;;-145.42;43.32
49367;BME280;35245;52.026;8.540;2023-07-20T12:38:00;51395.28;;;-145.42;44.29
49367;BME280;35245;52.026;8.540;2023-07-20T12:40:27;51345.72;;;-145.42;47.72